HNL weather

Public forecast

Using degrees Fahrenheit for public forecast. Weather courtesy of forecast.io.

Current aviation weather report (METAR) for Daniel K Inouye International Airport

Retrieved 2020/08/14 22:53 UTC (27 minutes ago):

PHNL 142253Z 04013G18KT 10SM FEW025 SCT050 32/17 A2996

Aviation forecast (TAF) for Daniel K Inouye International Airport

Retrieved 2020/08/14 18:33 UTC (5 hours ago):

TAF PHNL 141730Z 1418/1524 06008KT P6SM FEW025 SCT040 FM142000 06012G18KT P6SM FEW025 SCT045 FM150600 05007KT P6SM SCT025 SCT040 FM152000 06012G18KT P6SM FEW025 SCT045